Time;durP1;ratioP1;P1;durP2;ratioP2;P2;SDS_P1;SDS_P2;PMS_P1;PMS_P2;Temp;Humidity;BMP_temperature;BMP_pressure;BME280_temperature;BME280_humidity;BME280_pressure;Samples;Min_cycle;Max_cycle;Signal;HPM_P1;HPM_P2
2022/05/08 00:01:19;;;;;;;11.82;9.23;;;;;;;15.31;93.18;99889.28;4990429;28;20218;-75
2022/05/08 00:03:45;;;;;;;11.05;10.02;;;;;;;15.19;93.79;99891.03;4992367;28;20215;-75
2022/05/08 00:06:12;;;;;;;10.88;9.98;;;;;;;15.21;94.13;99884.53;4995823;28;20888;-75
2022/05/08 00:08:40;;;;;;;9.13;8.32;;;;;;;15.29;93.77;99891.25;4995524;28;20197;-75
2022/05/08 00:11:07;;;;;;;9.23;8.32;;;;;;;15.23;93.86;99885.28;4995609;28;20191;-75
2022/05/08 00:13:35;;;;;;;10.15;8.75;;;;;;;15.20;93.56;99877.38;4995638;28;20192;-75
2022/05/08 00:16:02;;;;;;;9.45;8.38;;;;;;;15.30;93.47;99876.69;4995617;28;20207;-75
2022/05/08 00:18:29;;;;;;;12.07;8.90;;;;;;;15.26;93.97;99876.03;4995568;28;20299;-75
2022/05/08 00:20:55;;;;;;;9.85;8.93;;;;;;;14.99;96.31;99876.19;4995199;28;20211;-75
2022/05/08 00:23:22;;;;;;;10.00;9.05;;;;;;;15.04;96.60;99865.91;4996327;28;20626;-75
2022/05/08 00:25:49;;;;;;;11.15;9.00;;;;;;;15.12;95.47;99874.34;4995256;28;20287;-74
2022/05/08 00:28:15;;;;;;;10.32;9.32;;;;;;;15.11;95.32;99871.75;4996071;28;20271;-74
2022/05/08 00:30:43;;;;;;;10.60;9.52;;;;;;;15.08;95.89;99869.25;4995254;28;20211;-74
2022/05/08 00:33:10;;;;;;;12.57;9.65;;;;;;;15.18;94.43;99868.47;4995317;28;20188;-75
2022/05/08 00:35:36;;;;;;;9.85;8.90;;;;;;;15.19;94.56;99864.78;4995210;28;20188;-75
2022/05/08 00:38:03;;;;;;;10.00;8.82;;;;;;;15.00;96.81;99862.53;4995028;28;20217;-76
2022/05/08 00:40:32;;;;;;;10.20;9.20;;;;;;;14.96;97.16;99857.47;4994960;28;20652;-75
2022/05/08 00:43:24;;;;;;;12.32;10.07;;;;;;;14.90;97.70;99857.88;4995020;28;20210;-76
2022/05/08 00:45:52;;;;;;;12.45;9.10;;;;;;;14.85;98.48;99858.22;4994987;28;20190;-76
2022/05/08 00:48:19;;;;;;;11.23;10.13;;;;;;;14.97;97.81;99859.22;4995348;28;20625;-76
2022/05/08 00:50:46;;;;;;;10.15;9.15;;;;;;;14.97;97.29;99848.38;4994573;28;20290;-76
2022/05/08 00:53:12;;;;;;;10.68;9.13;;;;;;;14.84;98.43;99848.38;4994408;28;20210;-75
2022/05/08 00:55:39;;;;;;;11.93;10.68;;;;;;;14.57;100.00;99862.91;4994661;28;20199;-75
2022/05/08 00:58:06;;;;;;;11.35;10.35;;;;;;;14.63;100.00;99845.34;4994803;28;20213;-74
2022/05/08 01:00:33;;;;;;;13.02;11.45;;;;;;;14.54;100.00;99852.28;4994444;28;20199;-76
2022/05/08 01:03:01;;;;;;;10.63;9.63;;;;;;;14.63;100.00;99841.75;4994421;28;20736;-74
2022/05/08 01:05:28;;;;;;;12.07;10.70;;;;;;;14.86;99.10;99854.56;4994674;28;20193;-75
2022/05/08 01:07:54;;;;;;;12.10;11.00;;;;;;;14.89;97.90;99845.31;4994810;28;20675;-75
2022/05/08 01:10:22;;;;;;;10.80;9.80;;;;;;;14.86;97.99;99841.00;4994097;28;20198;-75
2022/05/08 01:12:48;;;;;;;11.32;10.20;;;;;;;14.80;98.76;99836.88;4994222;28;20199;-75
2022/05/08 01:15:17;;;;;;;12.88;11.65;;;;;;;15.02;96.32;99846.19;4992623;28;20231;-74
2022/05/08 01:17:44;;;;;;;12.02;10.80;;;;;;;15.04;95.49;99846.94;4994050;28;20223;-76
2022/05/08 01:20:12;;;;;;;10.85;9.75;;;;;;;14.94;95.89;99843.13;4994573;28;20559;-76
2022/05/08 01:22:40;;;;;;;11.38;10.27;;;;;;;14.70;98.36;99848.50;4994102;28;20215;-75
2022/05/08 01:25:08;;;;;;;11.75;10.65;;;;;;;14.59;100.00;99844.69;4994256;28;20653;-75
2022/05/08 01:27:34;;;;;;;12.95;10.68;;;;;;;14.46;100.00;99846.50;4994044;28;20188;-75
2022/05/08 01:30:01;;;;;;;11.20;10.10;;;;;;;14.37;100.00;99842.59;4994092;28;20202;-77
2022/05/08 01:32:28;;;;;;;12.77;11.43;;;;;;;14.55;100.00;99839.59;4994096;28;20214;-75
2022/05/08 01:34:54;;;;;;;11.57;10.43;;;;;;;14.41;100.00;99836.97;4993603;28;20233;-75
2022/05/08 01:37:21;;;;;;;12.35;11.10;;;;;;;14.39;100.00;99843.34;4993967;28;20201;-75
2022/05/08 01:39:49;;;;;;;13.45;12.25;;;;;;;14.33;100.00;99832.06;4993754;28;20202;-75
2022/05/08 01:42:15;;;;;;;13.43;11.32;;;;;;;14.43;100.00;99837.75;4993745;28;20215;-77
2022/05/08 01:44:42;;;;;;;14.02;12.65;;;;;;;14.28;100.00;99837.81;4993883;28;20207;-76
2022/05/08 01:49:53;;;;;;;14.35;12.85;;;;;;;14.34;100.00;99840.09;4993704;28;20206;-75
2022/05/08 01:52:19;;;;;;;13.65;12.25;;;;;;;14.37;100.00;99842.59;4994635;28;20191;-74
2022/05/08 01:54:46;;;;;;;13.93;12.45;;;;;;;14.23;100.00;99836.41;4994138;28;20294;-76
2022/05/08 01:57:14;;;;;;;13.23;11.60;;;;;;;14.36;100.00;99845.44;4993579;28;20207;-75
2022/05/08 01:59:40;;;;;;;12.35;11.15;;;;;;;13.99;100.00;99834.41;4993618;28;20222;-75
2022/05/08 02:02:08;;;;;;;14.77;12.07;;;;;;;14.00;100.00;99847.00;4993587;28;20234;-75
2022/05/08 02:04:36;;;;;;;12.98;11.68;;;;;;;13.91;100.00;99853.91;4993402;28;20198;-75
2022/05/08 02:07:03;;;;;;;13.48;12.10;;;;;;;13.85;100.00;99854.31;4993919;28;20537;-75
2022/05/08 02:09:29;;;;;;;13.25;12.05;;;;;;;13.91;100.00;99845.78;4993460;28;20633;-75
2022/05/08 02:11:56;;;;;;;12.90;11.50;;;;;;;13.94;100.00;99842.84;4993352;28;20636;-76
2022/05/08 02:14:24;;;;;;;14.88;12.82;;;;;;;14.05;100.00;99850.25;4993319;28;20242;-75
2022/05/08 02:16:50;;;;;;;13.98;12.50;;;;;;;13.98;100.00;99848.94;4993109;28;20206;-75
2022/05/08 02:19:19;;;;;;;14.27;12.98;;;;;;;13.98;100.00;99857.91;4993646;28;20193;-75
2022/05/08 02:21:46;;;;;;;13.82;12.43;;;;;;;13.75;100.00;99851.38;4993184;28;20234;-76
2022/05/08 02:24:12;;;;;;;13.27;11.85;;;;;;;13.76;100.00;99849.53;4993226;28;20212;-76
2022/05/08 02:26:39;;;;;;;15.25;13.50;;;;;;;13.89;100.00;99845.00;4992926;28;20489;-75
2022/05/08 02:29:06;;;;;;;12.25;11.13;;;;;;;13.92;100.00;99850.22;4993444;28;20244;-76
2022/05/08 02:31:34;;;;;;;14.25;12.68;;;;;;;13.90;100.00;99857.56;4993255;28;20193;-75
2022/05/08 02:34:00;;;;;;;13.68;12.20;;;;;;;13.70;100.00;99850.81;4992912;28;20280;-74
2022/05/08 02:36:27;;;;;;;14.02;12.55;;;;;;;13.59;100.00;99852.47;4993110;28;20199;-75
2022/05/08 02:38:53;;;;;;;14.48;13.07;;;;;;;13.42;100.00;99857.19;4992859;28;20204;-74
2022/05/08 02:41:20;;;;;;;16.63;12.27;;;;;;;13.66;100.00;99854.69;4992692;28;20189;-74
2022/05/08 02:43:47;;;;;;;14.70;12.80;;;;;;;13.44;100.00;99847.13;4992787;28;20276;-75
2022/05/08 02:46:13;;;;;;;13.63;12.10;;;;;;;13.30;100.00;99858.84;4992802;28;20211;-76
2022/05/08 02:48:41;;;;;;;14.60;13.20;;;;;;;13.31;100.00;99857.00;4993102;28;20627;-76
2022/05/08 02:51:08;;;;;;;16.60;13.48;;;;;;;13.24;100.00;99847.53;4993242;28;20299;-75
2022/05/08 02:53:34;;;;;;;14.40;13.10;;;;;;;13.13;100.00;99850.94;4992505;28;20188;-76
2022/05/08 02:58:45;;;;;;;15.20;13.60;;;;;;;13.10;100.00;99852.00;4993097;28;20207;-74
2022/05/08 03:01:12;;;;;;;15.10;13.60;;;;;;;13.19;100.00;99846.97;4993252;28;20188;-74
2022/05/08 03:03:38;;;;;;;14.95;13.45;;;;;;;13.08;100.00;99850.38;4993037;28;20212;-75
2022/05/08 03:06:07;;;;;;;16.45;13.77;;;;;;;12.96;100.00;99849.31;4992774;28;20200;-75
2022/05/08 03:08:34;;;;;;;15.38;13.88;;;;;;;13.18;100.00;99847.94;4992921;28;20216;-75
2022/05/08 03:13:45;;;;;;;14.75;13.25;;;;;;;13.29;100.00;99854.41;4992349;28;20269;-75
2022/05/08 03:16:12;;;;;;;14.15;12.38;;;;;;;13.35;100.00;99851.31;4992745;28;20306;-76
2022/05/08 03:18:40;;;;;;;16.10;14.45;;;;;;;13.60;100.00;99848.81;4992150;28;20213;-74
2022/05/08 03:21:09;;;;;;;16.13;14.52;;;;;;;13.68;100.00;99857.28;4992474;28;20193;-75
2022/05/08 03:23:36;;;;;;;16.10;14.30;;;;;;;13.68;100.00;99849.16;4992717;28;20218;-75
2022/05/08 03:26:04;;;;;;;16.90;15.10;;;;;;;13.57;100.00;99855.31;4992927;28;20212;-75
2022/05/08 03:28:31;;;;;;;15.60;14.00;;;;;;;13.37;100.00;99847.66;4992977;28;20599;-75
2022/05/08 03:30:58;;;;;;;15.80;14.20;;;;;;;13.49;100.00;99847.69;4992527;28;20319;-74
2022/05/08 03:33:25;;;;;;;15.30;13.38;;;;;;;13.60;100.00;99852.38;4992613;28;20201;-77
2022/05/08 03:35:51;;;;;;;13.60;12.32;;;;;;;13.40;100.00;99852.84;4992507;28;20221;-76
2022/05/08 03:38:19;;;;;;;15.70;14.00;;;;;;;12.93;100.00;99850.41;4992389;28;20198;-75
2022/05/08 03:40:46;;;;;;;15.45;13.55;;;;;;;13.04;100.00;99852.38;4995478;28;20623;-75
2022/05/08 03:43:13;;;;;;;16.35;13.18;;;;;;;13.10;100.00;99857.41;4996487;28;20246;-75
2022/05/08 03:45:41;;;;;;;15.48;13.88;;;;;;;12.72;100.00;99849.03;4996289;28;20597;-75
2022/05/08 03:48:08;;;;;;;16.92;14.38;;;;;;;12.62;100.00;99848.75;4996267;28;20654;-75
2022/05/08 03:50:36;;;;;;;15.52;13.93;;;;;;;12.59;100.00;99857.03;4996321;28;20184;-75
2022/05/08 03:53:03;;;;;;;16.02;14.25;;;;;;;12.51;100.00;99859.38;4996111;28;20187;-75
2022/05/08 03:55:31;;;;;;;15.43;13.80;;;;;;;12.48;100.00;99859.53;4996300;28;20211;-74
2022/05/08 03:57:58;;;;;;;17.55;14.45;;;;;;;12.63;100.00;99864.00;4995908;28;20207;-74
2022/05/08 04:00:24;;;;;;;15.20;13.63;;;;;;;12.52;100.00;99861.09;4995744;28;20191;-75
2022/05/08 04:02:51;;;;;;;15.25;13.65;;;;;;;12.41;100.00;99863.59;4996084;28;20701;-78
2022/05/08 04:05:17;;;;;;;16.85;14.57;;;;;;;12.50;100.00;99865.72;4996258;28;20250;-75
2022/05/08 04:07:44;;;;;;;14.88;13.38;;;;;;;12.47;100.00;99865.91;4996117;28;20536;-76
2022/05/08 04:10:11;;;;;;;14.65;13.25;;;;;;;12.23;100.00;99866.47;4995620;28;20565;-75
2022/05/08 04:12:39;;;;;;;17.00;15.20;;;;;;;12.08;100.00;99870.09;4995787;28;20192;-76
2022/05/08 04:16:15;;;;;;;15.80;14.23;;;;;;;12.29;100.00;99866.06;4995696;28;20601;-76
2022/05/08 04:17:54;;;;;;;15.75;14.05;;;;;;;12.51;100.00;99868.31;4995702;28;20192;-74
2022/05/08 04:20:21;;;;;;;16.17;14.57;;;;;;;12.45;100.00;99871.41;4995349;28;20242;-75
2022/05/08 04:25:32;;;;;;;18.42;14.82;;;;;;;12.22;100.00;99867.41;4995815;28;20267;-76
2022/05/08 04:28:00;;;;;;;15.88;14.02;;;;;;;12.25;100.00;99872.63;4995397;28;20207;-74
2022/05/08 04:30:27;;;;;;;16.17;14.48;;;;;;;12.21;100.00;99881.88;4995000;28;20227;-75
2022/05/08 04:32:53;;;;;;;16.23;14.63;;;;;;;12.24;100.00;99878.13;4995594;28;20622;-76
2022/05/08 04:35:20;;;;;;;17.48;14.80;;;;;;;12.31;100.00;99876.78;4995534;28;20199;-74
2022/05/08 04:37:47;;;;;;;15.50;13.30;;;;;;;12.37;100.00;99880.94;4995324;28;20205;-76
2022/05/08 04:40:13;;;;;;;16.40;14.70;;;;;;;12.48;100.00;99881.13;4995177;28;20567;-75
2022/05/08 04:42:40;;;;;;;15.32;13.75;;;;;;;12.59;100.00;99888.59;4995119;28;20251;-75
2022/05/08 04:45:09;;;;;;;15.63;14.10;;;;;;;12.67;100.00;99878.19;4995583;28;20220;-75
2022/05/08 04:47:36;;;;;;;15.93;14.30;;;;;;;12.97;100.00;99883.47;4995490;28;20240;-74
2022/05/08 04:50:03;;;;;;;16.42;14.80;;;;;;;13.01;100.00;99890.44;4995079;28;20306;-75
2022/05/08 04:52:30;;;;;;;17.42;15.70;;;;;;;13.22;100.00;99890.88;4995080;28;20758;-75
2022/05/08 04:54:56;;;;;;;17.58;14.52;;;;;;;13.30;100.00;99893.16;4995452;28;20234;-75
2022/05/08 04:57:23;;;;;;;17.23;15.20;;;;;;;13.46;100.00;99901.13;4990562;28;20200;-75
2022/05/08 04:59:49;;;;;;;14.98;13.40;;;;;;;13.03;100.00;99893.06;4994768;28;20200;-75
2022/05/08 05:02:17;;;;;;;14.48;12.98;;;;;;;13.12;100.00;99903.28;4995106;28;20598;-76
2022/05/08 05:04:44;;;;;;;16.58;14.45;;;;;;;12.89;100.00;99892.09;4976835;28;20200;-75
2022/05/08 05:07:10;;;;;;;15.23;13.68;;;;;;;12.89;100.00;99886.69;4974431;28;20219;-75
2022/05/08 05:09:37;;;;;;;15.90;13.65;;;;;;;12.88;100.00;99889.47;4975495;28;20539;-74
2022/05/08 05:12:04;;;;;;;14.75;13.23;;;;;;;12.92;100.00;99891.03;4975381;28;20197;-75
2022/05/08 05:14:32;;;;;;;21.75;15.50;;;;;;;13.21;100.00;99901.81;4975298;28;20315;-75
2022/05/08 05:17:00;;;;;;;20.90;15.50;;;;;;;13.33;100.00;99896.50;4993651;28;20211;-75
2022/05/08 05:19:28;;;;;;;16.73;13.73;;;;;;;13.46;100.00;99896.59;4994194;28;20270;-75
2022/05/08 05:21:55;;;;;;;16.17;14.45;;;;;;;13.33;100.00;99903.75;4994806;28;20183;-76
2022/05/08 05:24:22;;;;;;;16.27;13.30;;;;;;;13.48;100.00;99904.59;4995006;28;20247;-75
2022/05/08 05:26:48;;;;;;;15.77;14.20;;;;;;;13.37;100.00;99909.84;4993749;28;20196;-76
2022/05/08 05:29:16;;;;;;;15.38;13.88;;;;;;;13.55;100.00;99906.81;4993897;28;20277;-75
2022/05/08 05:31:42;;;;;;;17.52;15.20;;;;;;;13.77;100.00;99910.81;4994756;28;20186;-75
2022/05/08 05:34:09;;;;;;;14.80;13.40;;;;;;;13.82;100.00;99911.38;4994489;28;20676;-75
2022/05/08 05:36:37;;;;;;;15.40;13.90;;;;;;;13.86;100.00;99917.41;4994305;28;20198;-75
2022/05/08 05:39:03;;;;;;;16.73;14.20;;;;;;;13.94;100.00;99913.25;4994281;28;20725;-76
2022/05/08 05:41:30;;;;;;;16.25;13.68;;;;;;;14.09;100.00;99921.31;4994669;28;20309;-75
2022/05/08 05:43:57;;;;;;;16.38;14.73;;;;;;;14.19;100.00;99920.56;4994305;28;20216;-76
2022/05/08 05:49:08;;;;;;;16.00;14.10;;;;;;;14.50;100.00;99932.03;4994401;28;20193;-75
2022/05/08 05:51:34;;;;;;;17.40;15.80;;;;;;;14.68;100.00;99929.91;4994022;28;20194;-76
2022/05/08 05:54:02;;;;;;;15.40;13.98;;;;;;;14.75;100.00;99925.78;4994186;28;20737;-75
2022/05/08 05:56:29;;;;;;;15.32;13.98;;;;;;;14.87;100.00;99928.59;4994374;28;20305;-75
2022/05/08 05:58:55;;;;;;;15.70;14.00;;;;;;;15.03;100.00;99929.25;4994543;28;20207;-76
2022/05/08 06:01:22;;;;;;;14.60;13.13;;;;;;;15.35;97.34;99928.78;4993564;28;20188;-75
2022/05/08 06:03:48;;;;;;;14.68;13.18;;;;;;;15.41;96.64;99929.19;4974434;28;20704;-74
2022/05/08 06:06:15;;;;;;;15.25;13.68;;;;;;;15.66;94.58;99921.97;4974884;28;20646;-74
2022/05/08 06:08:41;;;;;;;15.88;13.95;;;;;;;15.92;91.77;99930.91;4989707;28;20282;-75
2022/05/08 06:11:09;;;;;;;14.85;12.70;;;;;;;16.14;89.77;99935.56;4993684;28;20187;-75
2022/05/08 06:13:36;;;;;;;15.70;13.25;;;;;;;16.19;88.85;99933.41;4993143;28;20239;-74
2022/05/08 06:16:03;;;;;;;14.70;13.30;;;;;;;16.19;89.56;99935.22;4992579;28;20202;-75
2022/05/08 06:18:29;;;;;;;14.80;13.35;;;;;;;16.21;88.65;99941.41;4993701;28;20652;-76
2022/05/08 06:20:56;;;;;;;16.85;12.85;;;;;;;16.11;89.82;99946.69;4993396;28;20191;-75
2022/05/08 06:23:23;;;;;;;14.40;12.90;;;;;;;16.07;89.99;99938.88;4993550;28;20212;-74
2022/05/08 06:25:49;;;;;;;14.90;13.50;;;;;;;16.14;90.55;99945.59;4993235;28;20188;-75
2022/05/08 06:28:19;;;;;;;13.80;12.43;;;;;;;16.50;86.85;99944.63;4997693;28;20650;-78
2022/05/08 06:30:46;;;;;;;15.48;13.05;;;;;;;16.64;85.88;99947.16;4992145;28;20665;-76
2022/05/08 06:33:13;;;;;;;14.88;13.50;;;;;;;16.72;85.48;99941.09;4992521;28;20184;-77
2022/05/08 06:35:40;;;;;;;15.45;13.68;;;;;;;16.73;84.96;99942.81;4992244;28;20580;-77
2022/05/08 06:38:08;;;;;;;14.20;12.77;;;;;;;17.01;83.12;99949.72;4992047;28;20615;-77
2022/05/08 06:40:35;;;;;;;14.05;12.75;;;;;;;17.10;81.98;99950.84;4992470;28;20188;-77
2022/05/08 06:43:01;;;;;;;14.20;12.80;;;;;;;16.85;83.42;99949.19;4992049;28;20559;-78
2022/05/08 06:45:29;;;;;;;12.65;11.45;;;;;;;16.98;83.69;99946.34;4992177;28;20202;-79
2022/05/08 06:47:56;;;;;;;14.73;12.15;;;;;;;17.16;82.28;99946.75;4992487;28;20192;-76
2022/05/08 06:50:23;;;;;;;13.45;11.75;;;;;;;17.04;82.50;99944.00;4992260;28;20532;-76
2022/05/08 06:52:49;;;;;;;14.52;13.07;;;;;;;17.08;82.42;99940.06;4991765;28;20630;-78
2022/05/08 06:55:16;;;;;;;13.60;12.25;;;;;;;17.13;82.21;99936.97;4992639;28;20184;-77
2022/05/08 06:57:43;;;;;;;15.43;13.00;;;;;;;17.43;80.36;99944.50;4992251;28;20649;-76
2022/05/08 07:02:56;;;;;;;12.57;11.30;;;;;;;17.50;80.96;99945.78;4984749;28;20212;-77
2022/05/08 07:05:22;;;;;;;13.15;11.75;;;;;;;17.55;79.55;99949.94;4992350;28;20183;-79
2022/05/08 07:07:49;;;;;;;10.95;9.85;;;;;;;17.87;78.18;99947.34;4991895;28;20219;-79
2022/05/08 07:10:15;;;;;;;11.32;10.23;;;;;;;17.96;77.25;99951.19;4992503;28;20191;-78
2022/05/08 07:12:42;;;;;;;11.88;10.57;;;;;;;17.92;77.44;99945.09;4992494;28;20199;-78
2022/05/08 07:15:10;;;;;;;12.00;10.80;;;;;;;17.78;78.48;99943.50;4994656;28;20239;-78
2022/05/08 07:17:39;;;;;;;10.75;9.52;;;;;;;18.14;75.84;99949.63;4996534;28;20550;-78
2022/05/08 07:20:09;;;;;;;11.77;10.50;;;;;;;18.06;75.97;99950.25;4996685;28;20211;-78
2022/05/08 07:22:36;;;;;;;10.73;9.73;;;;;;;17.95;76.52;99950.28;4996418;28;20615;-78
2022/05/08 07:25:03;;;;;;;11.23;10.23;;;;;;;18.07;75.91;99949.28;4996306;28;20631;-78
2022/05/08 07:27:31;;;;;;;12.82;10.00;;;;;;;18.42;74.09;99950.88;4996728;28;20201;-77
2022/05/08 07:29:57;;;;;;;11.05;9.93;;;;;;;18.16;75.54;99947.66;4996419;28;20188;-77
2022/05/08 07:32:24;;;;;;;10.50;9.40;;;;;;;18.31;74.94;99954.50;4995978;28;20209;-78
2022/05/08 07:37:36;;;;;;;9.73;8.93;;;;;;;18.65;74.08;99956.22;4995705;28;20196;-78
2022/05/08 07:40:04;;;;;;;16.27;9.23;;;;;;;19.09;71.75;99952.38;4996239;28;20305;-78
2022/05/08 07:42:30;;;;;;;9.65;8.73;;;;;;;19.24;69.31;99952.88;4996054;28;20190;-79
2022/05/08 07:44:57;;;;;;;10.60;9.60;;;;;;;19.34;68.83;99945.59;4996925;28;20216;-77
2022/05/08 07:47:40;;;;;;;10.05;8.68;;;;;;;19.73;67.21;99955.84;4996918;28;20212;-78
2022/05/08 07:50:09;;;;;;;9.63;8.73;;;;;;;19.77;66.82;99951.81;4919530;29;20588;-79
2022/05/08 07:52:39;;;;;;;9.63;8.68;;;;;;;20.10;65.06;99957.91;4917966;29;20771;-79
2022/05/08 07:55:07;;;;;;;9.40;8.50;;;;;;;20.27;64.67;99957.22;4916752;29;20205;-79
2022/05/08 07:57:34;;;;;;;9.07;8.17;;;;;;;20.45;63.70;99951.06;4917176;29;20201;-78
2022/05/08 08:00:03;;;;;;;9.43;8.53;;;;;;;20.44;62.34;99955.63;4916868;29;20442;-78
2022/05/08 08:02:29;;;;;;;8.37;7.67;;;;;;;20.19;64.19;99963.41;4917867;29;20461;-79
2022/05/08 08:04:56;;;;;;;8.23;7.53;;;;;;;20.09;64.64;99958.94;4918991;29;20564;-78
2022/05/08 08:07:23;;;;;;;11.30;7.65;;;;;;;20.42;63.26;99966.75;4918531;29;20213;-78
2022/05/08 08:09:51;;;;;;;8.67;7.90;;;;;;;20.06;64.75;99965.56;4918385;29;20580;-79
2022/05/08 08:12:18;;;;;;;10.87;7.37;;;;;;;20.35;63.80;99968.31;4917927;29;20822;-78
2022/05/08 08:14:44;;;;;;;8.87;8.07;;;;;;;20.37;63.41;99965.44;4918343;29;20466;-79
2022/05/08 08:17:11;;;;;;;8.40;7.60;;;;;;;20.22;63.53;99961.41;4918426;29;20485;-79
2022/05/08 08:19:37;;;;;;;8.00;7.30;;;;;;;20.84;60.66;99973.78;4918212;29;20452;-79
2022/05/08 08:22:04;;;;;;;8.05;7.15;;;;;;;20.61;61.17;99967.78;4918078;29;20437;-80
2022/05/08 08:24:31;;;;;;;7.43;6.43;;;;;;;20.53;61.80;99968.47;4917033;29;20216;-78
2022/05/08 08:26:59;;;;;;;7.25;6.55;;;;;;;20.58;60.23;99973.53;4947138;28;20476;-78
2022/05/08 08:29:26;;;;;;;7.40;6.70;;;;;;;20.59;59.28;99978.84;4996779;28;20187;-78
2022/05/08 08:31:53;;;;;;;7.53;6.67;;;;;;;20.53;59.05;99976.69;4996842;28;20431;-79
2022/05/08 08:34:19;;;;;;;8.20;7.23;;;;;;;20.06;60.20;99976.50;4996435;28;20449;-78
2022/05/08 08:36:47;;;;;;;7.15;6.55;;;;;;;19.82;62.42;99976.84;4996902;28;20431;-78
2022/05/08 08:39:13;;;;;;;8.10;7.10;;;;;;;20.04;61.59;99978.50;4996816;28;20269;-79
2022/05/08 08:41:44;;;;;;;8.00;6.93;;;;;;;19.97;62.45;99977.34;4997003;28;20450;-78
2022/05/08 08:49:53;;;;;;;8.87;6.90;;;;;;;21.23;55.80;99985.53;4996955;28;20449;-78
2022/05/08 08:52:21;;;;;;;7.40;5.73;;;;;;;21.45;55.29;99984.34;4996703;28;20427;-78
2022/05/08 08:54:48;;;;;;;6.60;6.00;;;;;;;21.56;54.36;99980.53;4996949;28;20931;-77
2022/05/08 08:57:15;;;;;;;8.10;7.30;;;;;;;21.72;54.46;99981.78;4996505;28;20464;-78
2022/05/08 08:59:42;;;;;;;5.97;5.47;;;;;;;21.85;53.16;99980.41;4995799;28;20442;-78
2022/05/08 09:02:16;;;;;;;6.27;5.67;;;;;;;22.63;51.04;99988.13;4996108;28;20438;-78
2022/05/08 09:04:45;;;;;;;7.47;6.13;;;;;;;22.64;50.96;99984.38;4996489;28;20470;-77
2022/05/08 09:07:42;;;;;;;8.83;5.60;;;;;;;22.34;51.80;99980.16;4997115;28;20438;-78
2022/05/08 09:10:13;;;;;;;6.20;5.60;;;;;;;22.40;51.03;99981.38;4996676;28;20781;-79
2022/05/08 09:12:42;;;;;;;7.43;5.57;;;;;;;22.24;51.78;99985.69;4996391;28;20438;-78
2022/05/08 09:15:35;;;;;;;11.73;8.80;;;;;;;22.61;50.13;99981.06;4996125;28;20902;-79
2022/05/08 09:18:03;;;;;;;6.73;5.50;;;;;;;22.88;48.65;99988.34;4977385;28;20508;-78
2022/05/08 09:20:35;;;;;;;7.67;5.60;;;;;;;22.52;50.30;99982.00;4996175;28;20537;-79
2022/05/08 09:23:04;;;;;;;6.90;5.70;;;;;;;21.82;52.71;99977.97;4995934;28;20458;-78
2022/05/08 09:25:49;;;;;;;6.97;5.80;;;;;;;22.43;50.37;99984.69;4995375;28;20569;-78
2022/05/08 09:28:17;;;;;;;6.53;5.83;;;;;;;22.41;49.78;99980.34;4995918;28;20448;-79
2022/05/08 09:31:03;;;;;;;6.33;5.30;;;;;;;21.68;51.54;99975.72;4995474;28;20971;-78
2022/05/08 09:33:32;;;;;;;6.17;5.50;;;;;;;22.01;51.14;99974.25;4994151;28;20449;-79
2022/05/08 09:36:00;;;;;;;5.73;5.23;;;;;;;22.14;51.19;99973.00;4993014;28;20438;-79
2022/05/08 09:38:41;;;;;;;6.20;5.37;;;;;;;22.32;49.36;99976.69;4993527;28;20967;-77
2022/05/08 09:41:09;;;;;;;5.97;5.40;;;;;;;22.81;48.29;99973.53;4994041;28;20834;-79
2022/05/08 09:43:35;;;;;;;5.47;4.97;;;;;;;21.97;49.52;99961.88;4996244;28;20439;-79
2022/05/08 09:46:05;;;;;;;5.17;4.67;;;;;;;21.77;50.46;99963.84;4996675;28;20536;-80
2022/05/08 09:48:36;;;;;;;5.90;5.33;;;;;;;21.80;50.66;99960.81;4996634;28;20437;-79
2022/05/08 09:51:05;;;;;;;5.83;4.83;;;;;;;22.05;50.06;99959.22;4996655;28;20452;-77
2022/05/08 09:53:32;;;;;;;7.70;4.90;;;;;;;22.01;48.11;99971.50;4996200;28;20453;-79
2022/05/08 09:56:02;;;;;;;6.20;5.40;;;;;;;22.14;48.81;99971.16;4995939;28;20505;-79
2022/05/08 09:58:29;;;;;;;6.13;5.53;;;;;;;21.86;51.11;99962.06;4996557;28;20461;-79
2022/05/08 10:00:56;;;;;;;5.70;5.20;;;;;;;22.11;49.84;99965.97;4994859;28;20445;-79
2022/05/08 10:03:25;;;;;;;5.30;4.80;;;;;;;21.84;49.44;99961.38;4991590;28;20915;-79
2022/05/08 10:06:00;;;;;;;6.30;5.27;;;;;;;21.80;49.91;99965.44;4993701;28;20482;-79
2022/05/08 10:08:30;;;;;;;5.33;4.60;;;;;;;22.23;48.55;99966.66;4993668;28;20427;-78
2022/05/08 10:16:49;;;;;;;5.50;5.10;;;;;;;22.69;48.92;99961.94;4973154;28;20803;-78
2022/05/08 10:19:54;;;;;;;5.07;4.67;;;;;;;22.84;48.14;99960.34;4975885;28;20459;-80
2022/05/08 10:22:22;;;;;;;6.03;5.13;;;;;;;22.66;47.94;99956.78;4992564;28;20895;-78
2022/05/08 10:24:56;;;;;;;5.07;4.50;;;;;;;22.68;48.53;99955.59;4991964;28;20478;-79
2022/05/08 10:27:27;;;;;;;5.27;4.40;;;;;;;23.24;46.87;99953.44;4992108;28;20435;-79
2022/05/08 10:30:33;;;;;;;5.97;5.37;;;;;;;22.76;48.76;99952.03;4991197;28;21323;-79
2022/05/08 10:33:00;;;;;;;6.10;5.50;;;;;;;22.71;47.86;99954.41;4992564;28;21021;-80
2022/05/08 10:35:29;;;;;;;6.77;4.57;;;;;;;23.13;45.57;99950.09;4992416;28;20435;-80
2022/05/08 10:38:24;;;;;;;4.20;3.90;;;;;;;23.46;43.05;99949.28;4992458;28;20959;-79
2022/05/08 10:40:53;;;;;;;4.67;3.90;;;;;;;23.25;41.60;99946.94;4957502;28;20450;-80
2022/05/08 10:43:28;;;;;;;6.07;4.50;;;;;;;23.41;41.55;99946.16;4992180;28;20457;-79
2022/05/08 10:45:56;;;;;;;5.43;4.90;;;;;;;23.66;40.24;99954.53;4991619;28;20560;-78
2022/05/08 10:48:25;;;;;;;4.40;4.00;;;;;;;23.73;39.73;99948.19;4992042;28;20427;-79
2022/05/08 10:50:53;;;;;;;6.20;4.10;;;;;;;23.84;39.69;99952.56;4991668;28;20457;-79
2022/05/08 10:53:22;;;;;;;4.73;3.80;;;;;;;23.91;40.56;99942.63;4992286;28;20418;-80
2022/05/08 10:55:50;;;;;;;4.30;3.90;;;;;;;24.16;39.94;99942.69;4992282;28;20441;-80
2022/05/08 10:58:17;;;;;;;5.20;4.40;;;;;;;24.42;39.28;99936.19;4992049;28;20788;-79
2022/05/08 11:00:44;;;;;;;3.80;3.50;;;;;;;24.18;36.90;99948.03;4992200;28;20427;-78
2022/05/08 11:03:11;;;;;;;3.70;3.40;;;;;;;24.35;37.38;99944.25;4991987;28;20845;-80
2022/05/08 11:05:39;;;;;;;5.33;3.67;;;;;;;24.20;37.53;99941.31;4991128;28;20879;-79
2022/05/08 11:08:07;;;;;;;3.97;3.57;;;;;;;24.52;35.65;99936.94;4988169;28;20504;-80
2022/05/08 11:10:36;;;;;;;3.00;2.70;;;;;;;24.07;35.91;99944.56;4991203;28;20447;-79
2022/05/08 11:13:06;;;;;;;5.03;4.03;;;;;;;24.30;36.59;99932.91;4992394;28;20438;-78
2022/05/08 11:15:34;;;;;;;3.57;3.27;;;;;;;24.09;37.47;99939.75;4991841;28;20493;-78
2022/05/08 11:18:07;;;;;;;5.37;4.87;;;;;;;24.37;37.38;99938.59;4991879;28;20449;-79
2022/05/08 11:20:36;;;;;;;3.30;3.00;;;;;;;24.19;37.37;99933.22;4991832;28;20428;-79
2022/05/08 11:23:03;;;;;;;5.30;3.20;;;;;;;24.04;35.48;99933.03;4991965;28;20438;-78
2022/05/08 11:25:30;;;;;;;7.80;3.47;;;;;;;24.17;35.62;99929.78;4991927;28;20470;-79
2022/05/08 11:27:58;;;;;;;3.33;2.97;;;;;;;24.38;37.01;99926.53;4992209;28;20448;-78
2022/05/08 11:30:30;;;;;;;6.03;4.70;;;;;;;23.71;38.63;99941.13;4992215;28;20433;-79
2022/05/08 11:38:32;;;;;;;5.03;3.17;;;;;;;24.08;39.10;99932.53;4992285;28;20422;-78
2022/05/08 11:41:01;;;;;;;7.20;5.00;;;;;;;24.39;39.04;99933.78;4992011;28;20553;-79
2022/05/08 11:43:39;;;;;;;5.80;3.90;;;;;;;24.26;38.52;99929.66;4991347;28;20798;-78
2022/05/08 11:46:08;;;;;;;4.37;3.97;;;;;;;24.45;36.89;99916.59;4988535;28;20476;-79
2022/05/08 11:48:40;;;;;;;4.40;3.47;;;;;;;23.62;39.55;99925.66;4971908;28;20427;-79
2022/05/08 11:51:07;;;;;;;5.03;3.87;;;;;;;23.53;39.96;99927.50;4972578;28;20434;-79
2022/05/08 11:53:41;;;;;;;5.23;3.97;;;;;;;23.74;40.40;99924.31;4972254;28;20434;-80
2022/05/08 11:56:27;;;;;;;5.30;3.30;;;;;;;24.01;38.76;99919.59;4990090;28;20525;-79
2022/05/08 11:58:56;;;;;;;4.50;3.60;;;;;;;24.19;37.10;99914.81;4991783;28;20456;-78
2022/05/08 12:01:26;;;;;;;3.13;2.93;;;;;;;23.62;37.51;99921.00;4981237;28;20445;-79